NY Terminal Aviation Weather Discussion (AFD) - Prepared: 612 AM EDT SUN APR 26 2015
HIGH PRESSURE REESTABLISHES ITSELF FROM THE NW THROUGH THE
MORNING HOURS BEFORE ANOTHER THERMAL TROF SETS UP ACROSS THE
AREA IN THE AFTERNOON. THE HIGH THEN BUILDS BACK IN SUN NIGHT.

THIS WILL RESULT IN A N/NE FLOW AT LESS THAN 10 KT OVERNIGHT...
WHICH THEN BACKS AROUND THE THE W/SW BY AFTERNOON. SEABREEZES ARE
LIKELY AT THE COASTAL TERMINALS...DEVELOPING AS EARLY AS 15Z
ALONG THE CT COAST. KEWR AND KLGA MAY SEABREEZE LATE. WINDS ARE
LIKELY TO VARY AS THE TROUGH SETS UP IN THE AFTERNOON.

5 Day General Aviation Outlook:

.OUTLOOK FOR 06Z MONDAY THROUGH THU...
.SUN NIGHT...VFR..
.MON-MON NIGHT...POSSIBLE MVFR WITH SHOWERS.
.TUE-WED NIGHT...VFR.
.THU...POSSIBLE MVFR WITH SHOWERS.


*************************************************************************************
KJFK Terminal Weather:

FTNA35 KJFK 261125 RRB
KJFK 261121Z 2612/2718 04007KT P6SM FEW050
     FM261900 18012KT P6SM SCT070
     FM270000 19007KT P6SM BKN070
     FM270400 32007KT P6SM SCT070
     FM271400 32012KT P6SM SCT050
KJFK Forecaster Comments Not Available at This Time
*************************************************************************************
KLGA Terminal Weather:
FTUS80 KLGA 261124 RRC
KLGA 261121Z 2612/2712 05007KT P6SM FEW050
     FM262100 19008KT P6SM SCT070
     FM270000 21005KT P6SM BKN070
     FM270400 32007KT P6SM SCT070
KLGA Forecaster Comments Not Available at This Time
*************************************************************************************
KEWR Terminal Weather:
FTUS80 KEWR 261124 RRB
KEWR 261121Z 2612/2718 03007KT P6SM FEW050
     FM261900 32005KT P6SM SCT070
     FM262100 VRB04KT P6SM SCT070
     FM262300 18004KT P6SM BKN070
     FM270300 32007KT P6SM SCT070
     FM271400 32012KT P6SM SCT050
KEWR Forecaster Comments Not Available at This Time
*************************************************************************************
KTEB Terminal Weather:
FTUS80 KTEB 261124 RRF
KTEB 261121Z 2612/2712 01004KT P6SM FEW050
     FM261900 32005KT P6SM SCT070
     FM262300 18004KT P6SM BKN070
     FM270300 32005KT P6SM SCT070
KTEB Forecaster Comments Not Available at This Time
*************************************************************************************
KHPN Terminal Weather:
FTUS80 KHPN 261124 RRB
KHPN 261121Z 2612/2712 36006KT P6SM FEW050
     FM261900 31005KT P6SM SCT070
     FM262300 29004KT P6SM BKN070
     FM270300 32005KT P6SM SCT070 AMD NOT SKED
KHPN Forecaster Comments Not Available at This Time
*************************************************************************************
KISP Terminal Weather:
FTUS80 KISP 261124 RRC
KISP 261121Z 2612/2712 03007KT P6SM FEW050
     FM261800 24007KT P6SM SCT070
     FM262000 21008KT P6SM SCT070
     FM270100 23005KT P6SM BKN070
     FM270500 32005KT P6SM SCT070
KISP Forecaster Comments Not Available at This Time

*************************************************************************************
5 Day General Outlook:

.OUTLOOK FOR 06Z MONDAY THROUGH THU...
.SUN NIGHT...VFR..
.MON-MON NIGHT...POSSIBLE MVFR WITH SHOWERS.
.TUE-WED NIGHT...VFR.
.THU...POSSIBLE MVFR WITH SHOWERS.


Click the Print Icon print icon below to print the briefing sheet